sensor_id;sensor_type;location;lat;lon;timestamp;P1;durP1;ratioP1;P2;durP2;ratioP2
34765;SDS011;20984;43.508;1.504;2023-05-07T00:01:56;15.00;;;9.02;;
34765;SDS011;20984;43.508;1.504;2023-05-07T00:04:21;18.30;;;9.40;;
34765;SDS011;20984;43.508;1.504;2023-05-07T00:06:47;16.40;;;8.95;;
34765;SDS011;20984;43.508;1.504;2023-05-07T00:09:13;9.88;;;7.97;;
34765;SDS011;20984;43.508;1.504;2023-05-07T00:11:39;15.65;;;9.07;;
34765;SDS011;20984;43.508;1.504;2023-05-07T00:14:05;14.00;;;8.65;;
34765;SDS011;20984;43.508;1.504;2023-05-07T00:16:31;16.95;;;9.27;;
34765;SDS011;20984;43.508;1.504;2023-05-07T00:18:56;16.33;;;10.13;;
34765;SDS011;20984;43.508;1.504;2023-05-07T00:21:22;14.27;;;9.57;;
34765;SDS011;20984;43.508;1.504;2023-05-07T00:23:51;23.58;;;8.45;;
34765;SDS011;20984;43.508;1.504;2023-05-07T00:26:17;18.23;;;10.13;;
34765;SDS011;20984;43.508;1.504;2023-05-07T00:28:43;19.45;;;9.45;;
34765;SDS011;20984;43.508;1.504;2023-05-07T00:31:08;16.33;;;9.60;;
34765;SDS011;20984;43.508;1.504;2023-05-07T00:33:35;20.98;;;8.68;;
34765;SDS011;20984;43.508;1.504;2023-05-07T00:36:00;19.52;;;8.98;;
34765;SDS011;20984;43.508;1.504;2023-05-07T00:38:26;19.00;;;9.48;;
34765;SDS011;20984;43.508;1.504;2023-05-07T00:40:52;13.35;;;9.40;;
34765;SDS011;20984;43.508;1.504;2023-05-07T00:43:18;14.32;;;8.90;;
34765;SDS011;20984;43.508;1.504;2023-05-07T00:45:43;14.23;;;9.40;;
34765;SDS011;20984;43.508;1.504;2023-05-07T00:48:09;18.17;;;9.25;;
34765;SDS011;20984;43.508;1.504;2023-05-07T00:50:35;14.65;;;9.48;;
34765;SDS011;20984;43.508;1.504;2023-05-07T00:53:01;12.68;;;9.07;;
34765;SDS011;20984;43.508;1.504;2023-05-07T00:55:27;18.23;;;8.57;;
34765;SDS011;20984;43.508;1.504;2023-05-07T00:57:53;21.25;;;9.32;;
34765;SDS011;20984;43.508;1.504;2023-05-07T01:00:19;19.02;;;10.10;;
34765;SDS011;20984;43.508;1.504;2023-05-07T01:02:45;13.73;;;9.30;;
34765;SDS011;20984;43.508;1.504;2023-05-07T01:05:12;15.48;;;9.32;;
34765;SDS011;20984;43.508;1.504;2023-05-07T01:07:39;16.92;;;8.57;;
34765;SDS011;20984;43.508;1.504;2023-05-07T01:10:07;14.43;;;8.00;;
34765;SDS011;20984;43.508;1.504;2023-05-07T01:12:34;15.80;;;8.25;;
34765;SDS011;20984;43.508;1.504;2023-05-07T01:15:04;14.20;;;8.07;;
34765;SDS011;20984;43.508;1.504;2023-05-07T01:17:38;14.02;;;8.10;;
34765;SDS011;20984;43.508;1.504;2023-05-07T01:20:05;17.02;;;8.70;;
34765;SDS011;20984;43.508;1.504;2023-05-07T01:22:32;14.25;;;7.78;;
34765;SDS011;20984;43.508;1.504;2023-05-07T01:24:59;15.32;;;7.60;;
34765;SDS011;20984;43.508;1.504;2023-05-07T01:27:26;14.32;;;8.30;;
34765;SDS011;20984;43.508;1.504;2023-05-07T01:29:52;13.80;;;8.30;;
34765;SDS011;20984;43.508;1.504;2023-05-07T01:32:23;15.02;;;7.57;;
34765;SDS011;20984;43.508;1.504;2023-05-07T01:34:55;19.83;;;7.90;;
34765;SDS011;20984;43.508;1.504;2023-05-07T01:37:23;16.92;;;8.57;;
34765;SDS011;20984;43.508;1.504;2023-05-07T01:39:51;13.32;;;5.78;;
34765;SDS011;20984;43.508;1.504;2023-05-07T01:42:17;22.80;;;7.90;;
34765;SDS011;20984;43.508;1.504;2023-05-07T01:44:43;12.05;;;7.07;;
34765;SDS011;20984;43.508;1.504;2023-05-07T01:47:09;22.65;;;7.30;;
34765;SDS011;20984;43.508;1.504;2023-05-07T01:49:35;14.10;;;6.32;;
34765;SDS011;20984;43.508;1.504;2023-05-07T01:52:01;14.02;;;6.47;;
34765;SDS011;20984;43.508;1.504;2023-05-07T01:54:27;17.75;;;6.93;;
34765;SDS011;20984;43.508;1.504;2023-05-07T01:56:53;23.10;;;7.18;;
34765;SDS011;20984;43.508;1.504;2023-05-07T01:59:21;17.20;;;6.13;;
34765;SDS011;20984;43.508;1.504;2023-05-07T02:01:46;23.08;;;6.78;;
34765;SDS011;20984;43.508;1.504;2023-05-07T02:04:12;11.65;;;6.50;;
34765;SDS011;20984;43.508;1.504;2023-05-07T02:06:38;10.38;;;5.70;;
34765;SDS011;20984;43.508;1.504;2023-05-07T02:09:03;11.40;;;6.85;;
34765;SDS011;20984;43.508;1.504;2023-05-07T02:11:29;23.13;;;7.20;;
34765;SDS011;20984;43.508;1.504;2023-05-07T02:13:55;14.65;;;6.45;;
34765;SDS011;20984;43.508;1.504;2023-05-07T02:16:20;11.98;;;5.72;;
34765;SDS011;20984;43.508;1.504;2023-05-07T02:18:47;13.35;;;5.82;;
34765;SDS011;20984;43.508;1.504;2023-05-07T02:21:13;11.32;;;5.78;;
34765;SDS011;20984;43.508;1.504;2023-05-07T02:23:39;20.58;;;6.78;;
34765;SDS011;20984;43.508;1.504;2023-05-07T02:26:04;18.95;;;6.10;;
34765;SDS011;20984;43.508;1.504;2023-05-07T02:28:30;15.88;;;7.68;;
34765;SDS011;20984;43.508;1.504;2023-05-07T02:30:56;15.45;;;6.25;;
34765;SDS011;20984;43.508;1.504;2023-05-07T02:33:23;12.00;;;6.10;;
34765;SDS011;20984;43.508;1.504;2023-05-07T02:35:49;13.48;;;5.10;;
34765;SDS011;20984;43.508;1.504;2023-05-07T02:38:16;13.63;;;5.45;;
34765;SDS011;20984;43.508;1.504;2023-05-07T02:40:42;20.55;;;6.50;;
34765;SDS011;20984;43.508;1.504;2023-05-07T02:43:08;14.38;;;6.35;;
34765;SDS011;20984;43.508;1.504;2023-05-07T02:45:34;9.15;;;5.70;;
34765;SDS011;20984;43.508;1.504;2023-05-07T02:48:01;10.73;;;5.38;;
34765;SDS011;20984;43.508;1.504;2023-05-07T02:50:26;14.57;;;5.80;;
34765;SDS011;20984;43.508;1.504;2023-05-07T02:52:52;15.23;;;6.05;;
34765;SDS011;20984;43.508;1.504;2023-05-07T02:55:18;12.95;;;6.30;;
34765;SDS011;20984;43.508;1.504;2023-05-07T02:57:44;18.25;;;6.93;;
34765;SDS011;20984;43.508;1.504;2023-05-07T03:00:10;20.45;;;6.78;;
34765;SDS011;20984;43.508;1.504;2023-05-07T03:02:39;16.90;;;5.75;;
34765;SDS011;20984;43.508;1.504;2023-05-07T03:05:05;15.48;;;6.18;;
34765;SDS011;20984;43.508;1.504;2023-05-07T03:07:31;18.02;;;6.22;;
34765;SDS011;20984;43.508;1.504;2023-05-07T03:09:57;12.90;;;5.82;;
34765;SDS011;20984;43.508;1.504;2023-05-07T03:12:23;12.73;;;6.05;;
34765;SDS011;20984;43.508;1.504;2023-05-07T03:14:48;18.67;;;5.97;;
34765;SDS011;20984;43.508;1.504;2023-05-07T03:17:14;14.02;;;5.68;;
34765;SDS011;20984;43.508;1.504;2023-05-07T03:19:41;18.25;;;5.95;;
34765;SDS011;20984;43.508;1.504;2023-05-07T03:22:06;13.90;;;7.25;;
34765;SDS011;20984;43.508;1.504;2023-05-07T03:24:32;14.40;;;5.75;;
34765;SDS011;20984;43.508;1.504;2023-05-07T03:26:58;16.63;;;5.90;;
34765;SDS011;20984;43.508;1.504;2023-05-07T03:29:23;14.95;;;6.18;;
34765;SDS011;20984;43.508;1.504;2023-05-07T03:31:49;18.13;;;5.72;;
34765;SDS011;20984;43.508;1.504;2023-05-07T03:34:15;19.63;;;6.43;;
34765;SDS011;20984;43.508;1.504;2023-05-07T03:36:42;14.80;;;6.75;;
34765;SDS011;20984;43.508;1.504;2023-05-07T03:39:07;23.40;;;6.25;;
34765;SDS011;20984;43.508;1.504;2023-05-07T03:41:33;16.33;;;6.50;;
34765;SDS011;20984;43.508;1.504;2023-05-07T03:43:59;19.80;;;6.82;;
34765;SDS011;20984;43.508;1.504;2023-05-07T03:46:25;18.88;;;7.05;;
34765;SDS011;20984;43.508;1.504;2023-05-07T03:48:51;19.38;;;6.65;;
34765;SDS011;20984;43.508;1.504;2023-05-07T03:51:17;17.48;;;5.13;;
34765;SDS011;20984;43.508;1.504;2023-05-07T03:53:42;20.67;;;6.97;;
34765;SDS011;20984;43.508;1.504;2023-05-07T03:56:08;14.65;;;5.95;;
34765;SDS011;20984;43.508;1.504;2023-05-07T03:58:34;14.93;;;6.30;;
34765;SDS011;20984;43.508;1.504;2023-05-07T04:01:00;20.77;;;6.75;;
34765;SDS011;20984;43.508;1.504;2023-05-07T04:03:26;15.55;;;6.40;;
34765;SDS011;20984;43.508;1.504;2023-05-07T04:05:51;18.60;;;6.30;;
34765;SDS011;20984;43.508;1.504;2023-05-07T04:08:17;13.80;;;5.65;;
34765;SDS011;20984;43.508;1.504;2023-05-07T04:10:42;23.67;;;6.50;;
34765;SDS011;20984;43.508;1.504;2023-05-07T04:13:08;13.05;;;5.75;;
34765;SDS011;20984;43.508;1.504;2023-05-07T04:15:35;15.85;;;5.97;;
34765;SDS011;20984;43.508;1.504;2023-05-07T04:18:00;17.60;;;5.88;;
34765;SDS011;20984;43.508;1.504;2023-05-07T04:20:26;13.75;;;5.90;;
34765;SDS011;20984;43.508;1.504;2023-05-07T04:22:52;18.73;;;6.30;;
34765;SDS011;20984;43.508;1.504;2023-05-07T04:25:18;18.15;;;6.93;;
34765;SDS011;20984;43.508;1.504;2023-05-07T04:27:43;15.45;;;6.07;;
34765;SDS011;20984;43.508;1.504;2023-05-07T04:30:09;15.68;;;5.45;;
34765;SDS011;20984;43.508;1.504;2023-05-07T04:32:36;12.48;;;6.55;;
34765;SDS011;20984;43.508;1.504;2023-05-07T04:35:02;14.50;;;5.78;;
34765;SDS011;20984;43.508;1.504;2023-05-07T04:37:28;11.82;;;6.18;;
34765;SDS011;20984;43.508;1.504;2023-05-07T04:39:54;13.90;;;5.07;;
34765;SDS011;20984;43.508;1.504;2023-05-07T04:42:19;15.55;;;5.85;;
34765;SDS011;20984;43.508;1.504;2023-05-07T04:44:45;12.32;;;5.30;;
34765;SDS011;20984;43.508;1.504;2023-05-07T04:47:11;16.15;;;5.57;;
34765;SDS011;20984;43.508;1.504;2023-05-07T04:49:40;12.95;;;5.70;;
34765;SDS011;20984;43.508;1.504;2023-05-07T04:52:06;18.17;;;6.05;;
34765;SDS011;20984;43.508;1.504;2023-05-07T04:54:31;15.30;;;5.30;;
34765;SDS011;20984;43.508;1.504;2023-05-07T04:56:57;11.48;;;4.93;;
34765;SDS011;20984;43.508;1.504;2023-05-07T04:59:23;14.80;;;6.03;;
34765;SDS011;20984;43.508;1.504;2023-05-07T05:01:48;16.48;;;5.13;;
34765;SDS011;20984;43.508;1.504;2023-05-07T05:04:14;10.38;;;4.90;;
34765;SDS011;20984;43.508;1.504;2023-05-07T05:06:39;12.43;;;5.85;;
34765;SDS011;20984;43.508;1.504;2023-05-07T05:09:05;15.52;;;5.30;;
34765;SDS011;20984;43.508;1.504;2023-05-07T05:11:31;11.15;;;4.97;;
34765;SDS011;20984;43.508;1.504;2023-05-07T05:13:58;13.50;;;5.43;;
34765;SDS011;20984;43.508;1.504;2023-05-07T05:16:24;15.35;;;5.47;;
34765;SDS011;20984;43.508;1.504;2023-05-07T05:18:50;16.92;;;7.07;;
34765;SDS011;20984;43.508;1.504;2023-05-07T05:21:17;11.40;;;5.32;;
34765;SDS011;20984;43.508;1.504;2023-05-07T05:23:42;19.08;;;5.45;;
34765;SDS011;20984;43.508;1.504;2023-05-07T05:26:08;12.43;;;5.47;;
34765;SDS011;20984;43.508;1.504;2023-05-07T05:28:34;20.23;;;5.65;;
34765;SDS011;20984;43.508;1.504;2023-05-07T05:30:59;13.38;;;4.40;;
34765;SDS011;20984;43.508;1.504;2023-05-07T05:33:25;19.45;;;4.85;;
34765;SDS011;20984;43.508;1.504;2023-05-07T05:35:51;16.20;;;4.85;;
34765;SDS011;20984;43.508;1.504;2023-05-07T05:38:16;14.00;;;4.43;;
34765;SDS011;20984;43.508;1.504;2023-05-07T05:40:42;15.38;;;5.85;;
34765;SDS011;20984;43.508;1.504;2023-05-07T05:43:08;19.42;;;5.28;;
34765;SDS011;20984;43.508;1.504;2023-05-07T05:45:33;15.43;;;5.50;;
34765;SDS011;20984;43.508;1.504;2023-05-07T05:47:59;15.07;;;4.70;;
34765;SDS011;20984;43.508;1.504;2023-05-07T05:50:25;12.60;;;5.00;;
34765;SDS011;20984;43.508;1.504;2023-05-07T05:52:51;16.70;;;4.93;;
34765;SDS011;20984;43.508;1.504;2023-05-07T05:55:16;15.05;;;5.45;;
34765;SDS011;20984;43.508;1.504;2023-05-07T05:57:42;13.20;;;6.18;;
34765;SDS011;20984;43.508;1.504;2023-05-07T06:00:08;15.00;;;4.55;;
34765;SDS011;20984;43.508;1.504;2023-05-07T06:02:34;16.00;;;5.18;;
34765;SDS011;20984;43.508;1.504;2023-05-07T06:05:00;15.05;;;4.93;;
34765;SDS011;20984;43.508;1.504;2023-05-07T06:07:25;13.65;;;4.53;;
34765;SDS011;20984;43.508;1.504;2023-05-07T06:09:51;11.98;;;5.00;;
34765;SDS011;20984;43.508;1.504;2023-05-07T06:12:17;14.98;;;5.50;;
34765;SDS011;20984;43.508;1.504;2023-05-07T06:14:43;11.45;;;5.20;;
34765;SDS011;20984;43.508;1.504;2023-05-07T06:17:08;14.52;;;5.07;;
34765;SDS011;20984;43.508;1.504;2023-05-07T06:19:34;15.48;;;6.53;;
34765;SDS011;20984;43.508;1.504;2023-05-07T06:22:00;14.30;;;5.65;;
34765;SDS011;20984;43.508;1.504;2023-05-07T06:24:26;18.17;;;5.40;;
34765;SDS011;20984;43.508;1.504;2023-05-07T06:26:52;12.70;;;5.50;;
34765;SDS011;20984;43.508;1.504;2023-05-07T06:29:18;15.48;;;5.13;;
34765;SDS011;20984;43.508;1.504;2023-05-07T06:31:44;13.50;;;5.03;;
34765;SDS011;20984;43.508;1.504;2023-05-07T06:34:09;15.82;;;6.05;;
34765;SDS011;20984;43.508;1.504;2023-05-07T06:36:39;15.45;;;5.05;;
34765;SDS011;20984;43.508;1.504;2023-05-07T06:39:05;13.30;;;5.45;;
34765;SDS011;20984;43.508;1.504;2023-05-07T06:41:31;14.75;;;5.50;;
34765;SDS011;20984;43.508;1.504;2023-05-07T06:43:56;15.63;;;4.60;;
34765;SDS011;20984;43.508;1.504;2023-05-07T06:46:22;11.85;;;5.35;;
34765;SDS011;20984;43.508;1.504;2023-05-07T06:48:48;17.17;;;5.38;;
34765;SDS011;20984;43.508;1.504;2023-05-07T06:51:13;13.57;;;5.07;;
34765;SDS011;20984;43.508;1.504;2023-05-07T06:53:39;20.08;;;6.45;;
34765;SDS011;20984;43.508;1.504;2023-05-07T06:56:05;12.30;;;4.55;;
34765;SDS011;20984;43.508;1.504;2023-05-07T06:58:31;17.27;;;5.78;;
34765;SDS011;20984;43.508;1.504;2023-05-07T07:00:57;12.10;;;5.75;;
34765;SDS011;20984;43.508;1.504;2023-05-07T07:03:22;16.08;;;5.57;;
34765;SDS011;20984;43.508;1.504;2023-05-07T07:05:51;16.80;;;5.10;;
34765;SDS011;20984;43.508;1.504;2023-05-07T07:08:18;9.70;;;4.22;;
34765;SDS011;20984;43.508;1.504;2023-05-07T07:10:43;10.77;;;4.75;;
34765;SDS011;20984;43.508;1.504;2023-05-07T07:13:09;15.85;;;5.93;;
34765;SDS011;20984;43.508;1.504;2023-05-07T07:15:35;17.25;;;5.30;;
34765;SDS011;20984;43.508;1.504;2023-05-07T07:18:00;18.27;;;5.30;;
34765;SDS011;20984;43.508;1.504;2023-05-07T07:20:26;14.82;;;5.35;;
34765;SDS011;20984;43.508;1.504;2023-05-07T07:22:52;18.75;;;4.90;;
34765;SDS011;20984;43.508;1.504;2023-05-07T07:25:17;15.18;;;5.07;;
34765;SDS011;20984;43.508;1.504;2023-05-07T07:27:43;14.30;;;4.45;;
34765;SDS011;20984;43.508;1.504;2023-05-07T07:30:09;15.65;;;4.95;;
34765;SDS011;20984;43.508;1.504;2023-05-07T07:32:34;14.95;;;5.25;;
34765;SDS011;20984;43.508;1.504;2023-05-07T07:35:00;17.88;;;5.93;;
34765;SDS011;20984;43.508;1.504;2023-05-07T07:37:26;16.48;;;5.28;;
34765;SDS011;20984;43.508;1.504;2023-05-07T07:39:52;13.90;;;4.18;;
34765;SDS011;20984;43.508;1.504;2023-05-07T07:42:17;12.30;;;4.63;;
34765;SDS011;20984;43.508;1.504;2023-05-07T07:44:43;12.80;;;4.35;;
34765;SDS011;20984;43.508;1.504;2023-05-07T07:47:09;17.88;;;4.93;;
34765;SDS011;20984;43.508;1.504;2023-05-07T07:49:35;15.07;;;5.40;;
34765;SDS011;20984;43.508;1.504;2023-05-07T07:52:01;11.70;;;4.60;;
34765;SDS011;20984;43.508;1.504;2023-05-07T07:54:26;13.48;;;4.65;;
34765;SDS011;20984;43.508;1.504;2023-05-07T07:56:52;20.65;;;6.22;;
34765;SDS011;20984;43.508;1.504;2023-05-07T07:59:18;17.15;;;5.32;;
34765;SDS011;20984;43.508;1.504;2023-05-07T08:01:44;12.35;;;5.70;;
34765;SDS011;20984;43.508;1.504;2023-05-07T08:04:10;14.18;;;5.32;;
34765;SDS011;20984;43.508;1.504;2023-05-07T08:06:35;16.88;;;4.97;;
34765;SDS011;20984;43.508;1.504;2023-05-07T08:09:01;12.52;;;4.72;;
34765;SDS011;20984;43.508;1.504;2023-05-07T08:11:27;16.20;;;4.95;;
34765;SDS011;20984;43.508;1.504;2023-05-07T08:13:53;10.98;;;3.92;;
34765;SDS011;20984;43.508;1.504;2023-05-07T08:16:20;18.13;;;6.25;;
34765;SDS011;20984;43.508;1.504;2023-05-07T08:18:46;11.75;;;5.63;;
34765;SDS011;20984;43.508;1.504;2023-05-07T08:21:11;15.52;;;5.13;;
34765;SDS011;20984;43.508;1.504;2023-05-07T08:23:37;16.83;;;5.05;;
34765;SDS011;20984;43.508;1.504;2023-05-07T08:26:03;18.40;;;5.05;;
34765;SDS011;20984;43.508;1.504;2023-05-07T08:28:28;12.70;;;5.57;;
34765;SDS011;20984;43.508;1.504;2023-05-07T08:30:54;16.67;;;5.28;;
34765;SDS011;20984;43.508;1.504;2023-05-07T08:33:21;18.70;;;4.32;;
34765;SDS011;20984;43.508;1.504;2023-05-07T08:35:47;15.00;;;5.35;;
34765;SDS011;20984;43.508;1.504;2023-05-07T08:38:13;19.38;;;5.55;;
34765;SDS011;20984;43.508;1.504;2023-05-07T08:40:39;21.35;;;6.15;;
34765;SDS011;20984;43.508;1.504;2023-05-07T08:43:06;13.70;;;5.82;;
34765;SDS011;20984;43.508;1.504;2023-05-07T08:45:32;16.65;;;5.65;;
34765;SDS011;20984;43.508;1.504;2023-05-07T08:47:59;17.55;;;5.38;;
34765;SDS011;20984;43.508;1.504;2023-05-07T08:50:28;16.85;;;5.88;;
34765;SDS011;20984;43.508;1.504;2023-05-07T08:52:54;12.98;;;5.45;;
34765;SDS011;20984;43.508;1.504;2023-05-07T08:55:22;26.17;;;7.45;;
34765;SDS011;20984;43.508;1.504;2023-05-07T08:57:48;13.93;;;5.43;;
34765;SDS011;20984;43.508;1.504;2023-05-07T09:00:15;23.25;;;5.38;;
34765;SDS011;20984;43.508;1.504;2023-05-07T09:02:41;16.10;;;4.85;;
34765;SDS011;20984;43.508;1.504;2023-05-07T09:05:06;14.50;;;5.38;;
34765;SDS011;20984;43.508;1.504;2023-05-07T09:07:33;13.30;;;4.22;;
34765;SDS011;20984;43.508;1.504;2023-05-07T09:10:01;14.38;;;4.10;;
34765;SDS011;20984;43.508;1.504;2023-05-07T09:12:30;15.77;;;4.57;;
34765;SDS011;20984;43.508;1.504;2023-05-07T09:14:56;13.65;;;4.53;;
34765;SDS011;20984;43.508;1.504;2023-05-07T09:17:21;14.40;;;4.55;;
34765;SDS011;20984;43.508;1.504;2023-05-07T09:19:47;13.63;;;4.30;;
34765;SDS011;20984;43.508;1.504;2023-05-07T09:22:13;14.25;;;5.07;;
34765;SDS011;20984;43.508;1.504;2023-05-07T09:24:39;18.20;;;4.40;;
34765;SDS011;20984;43.508;1.504;2023-05-07T09:27:05;14.48;;;4.90;;
34765;SDS011;20984;43.508;1.504;2023-05-07T09:29:31;13.80;;;5.13;;
34765;SDS011;20984;43.508;1.504;2023-05-07T09:32:03;11.85;;;4.78;;
34765;SDS011;20984;43.508;1.504;2023-05-07T09:34:32;11.32;;;3.90;;
34765;SDS011;20984;43.508;1.504;2023-05-07T09:36:58;18.52;;;4.68;;
34765;SDS011;20984;43.508;1.504;2023-05-07T09:39:46;13.45;;;4.63;;
34765;SDS011;20984;43.508;1.504;2023-05-07T09:42:14;13.52;;;4.35;;
34765;SDS011;20984;43.508;1.504;2023-05-07T09:44:40;12.35;;;5.05;;
34765;SDS011;20984;43.508;1.504;2023-05-07T09:47:06;10.48;;;4.45;;
34765;SDS011;20984;43.508;1.504;2023-05-07T09:49:36;12.43;;;4.18;;
34765;SDS011;20984;43.508;1.504;2023-05-07T09:52:04;13.75;;;5.30;;
34765;SDS011;20984;43.508;1.504;2023-05-07T09:54:32;11.63;;;4.32;;
34765;SDS011;20984;43.508;1.504;2023-05-07T09:56:58;11.48;;;4.25;;
34765;SDS011;20984;43.508;1.504;2023-05-07T09:59:27;16.25;;;4.20;;
34765;SDS011;20984;43.508;1.504;2023-05-07T10:01:53;10.18;;;3.85;;
34765;SDS011;20984;43.508;1.504;2023-05-07T10:04:23;11.35;;;3.97;;
34765;SDS011;20984;43.508;1.504;2023-05-07T10:06:53;12.88;;;4.03;;
34765;SDS011;20984;43.508;1.504;2023-05-07T10:09:20;9.93;;;4.80;;
34765;SDS011;20984;43.508;1.504;2023-05-07T10:11:47;12.32;;;4.30;;
34765;SDS011;20984;43.508;1.504;2023-05-07T10:14:14;12.60;;;4.13;;
34765;SDS011;20984;43.508;1.504;2023-05-07T10:16:40;12.25;;;3.85;;
34765;SDS011;20984;43.508;1.504;2023-05-07T10:19:08;7.75;;;3.80;;
34765;SDS011;20984;43.508;1.504;2023-05-07T10:21:37;10.18;;;4.68;;
34765;SDS011;20984;43.508;1.504;2023-05-07T10:24:13;17.33;;;4.43;;
34765;SDS011;20984;43.508;1.504;2023-05-07T10:26:45;14.82;;;3.72;;
34765;SDS011;20984;43.508;1.504;2023-05-07T10:32:16;11.68;;;4.50;;
34765;SDS011;20984;43.508;1.504;2023-05-07T10:34:44;15.30;;;4.13;;
34765;SDS011;20984;43.508;1.504;2023-05-07T10:37:12;11.80;;;4.18;;
34765;SDS011;20984;43.508;1.504;2023-05-07T10:39:38;9.25;;;3.47;;
34765;SDS011;20984;43.508;1.504;2023-05-07T10:42:12;15.00;;;3.65;;
34765;SDS011;20984;43.508;1.504;2023-05-07T10:44:38;8.90;;;4.35;;
34765;SDS011;20984;43.508;1.504;2023-05-07T10:49:35;10.20;;;4.20;;
34765;SDS011;20984;43.508;1.504;2023-05-07T10:52:14;10.57;;;4.03;;
34765;SDS011;20984;43.508;1.504;2023-05-07T10:55:18;14.85;;;4.43;;
34765;SDS011;20984;43.508;1.504;2023-05-07T10:57:42;13.80;;;4.65;;
34765;SDS011;20984;43.508;1.504;2023-05-07T11:03:04;15.07;;;4.40;;
34765;SDS011;20984;43.508;1.504;2023-05-07T11:05:32;12.20;;;4.22;;
34765;SDS011;20984;43.508;1.504;2023-05-07T11:07:59;11.23;;;4.35;;
34765;SDS011;20984;43.508;1.504;2023-05-07T11:13:16;15.43;;;5.00;;
34765;SDS011;20984;43.508;1.504;2023-05-07T11:15:44;13.20;;;5.43;;
34765;SDS011;20984;43.508;1.504;2023-05-07T11:18:12;17.27;;;4.90;;
34765;SDS011;20984;43.508;1.504;2023-05-07T11:26:08;10.88;;;4.15;;
34765;SDS011;20984;43.508;1.504;2023-05-07T11:28:39;12.90;;;3.80;;
34765;SDS011;20984;43.508;1.504;2023-05-07T11:31:06;11.93;;;4.00;;
34765;SDS011;20984;43.508;1.504;2023-05-07T11:33:32;12.02;;;4.25;;
34765;SDS011;20984;43.508;1.504;2023-05-07T11:35:59;10.35;;;3.35;;
34765;SDS011;20984;43.508;1.504;2023-05-07T11:38:25;10.50;;;3.35;;
34765;SDS011;20984;43.508;1.504;2023-05-07T11:40:57;11.48;;;3.95;;
34765;SDS011;20984;43.508;1.504;2023-05-07T11:43:25;10.45;;;3.13;;
34765;SDS011;20984;43.508;1.504;2023-05-07T11:45:52;10.32;;;2.90;;
34765;SDS011;20984;43.508;1.504;2023-05-07T11:48:18;9.65;;;2.88;;
34765;SDS011;20984;43.508;1.504;2023-05-07T11:50:52;9.25;;;2.85;;
34765;SDS011;20984;43.508;1.504;2023-05-07T11:53:28;10.60;;;2.67;;
34765;SDS011;20984;43.508;1.504;2023-05-07T11:56:05;12.55;;;3.47;;
34765;SDS011;20984;43.508;1.504;2023-05-07T11:58:35;7.70;;;3.17;;
34765;SDS011;20984;43.508;1.504;2023-05-07T12:01:01;15.15;;;4.03;;
34765;SDS011;20984;43.508;1.504;2023-05-07T12:03:27;11.98;;;3.97;;
34765;SDS011;20984;43.508;1.504;2023-05-07T12:05:53;8.15;;;3.58;;
34765;SDS011;20984;43.508;1.504;2023-05-07T12:08:19;8.52;;;3.10;;
34765;SDS011;20984;43.508;1.504;2023-05-07T12:10:48;7.63;;;3.05;;
34765;SDS011;20984;43.508;1.504;2023-05-07T12:13:18;9.57;;;2.88;;
34765;SDS011;20984;43.508;1.504;2023-05-07T12:15:52;13.52;;;4.60;;
34765;SDS011;20984;43.508;1.504;2023-05-07T12:18:19;11.63;;;3.38;;
34765;SDS011;20984;43.508;1.504;2023-05-07T12:20:45;10.80;;;2.65;;
34765;SDS011;20984;43.508;1.504;2023-05-07T12:23:12;9.93;;;3.53;;
34765;SDS011;20984;43.508;1.504;2023-05-07T12:25:39;9.65;;;3.38;;
34765;SDS011;20984;43.508;1.504;2023-05-07T12:28:12;8.88;;;3.92;;
34765;SDS011;20984;43.508;1.504;2023-05-07T12:30:42;17.13;;;3.75;;
34765;SDS011;20984;43.508;1.504;2023-05-07T12:33:09;11.07;;;3.47;;
34765;SDS011;20984;43.508;1.504;2023-05-07T12:35:39;8.05;;;3.10;;
34765;SDS011;20984;43.508;1.504;2023-05-07T12:38:07;12.35;;;3.47;;
34765;SDS011;20984;43.508;1.504;2023-05-07T12:40:37;12.65;;;3.97;;
34765;SDS011;20984;43.508;1.504;2023-05-07T12:43:04;8.98;;;2.78;;
34765;SDS011;20984;43.508;1.504;2023-05-07T12:45:30;11.68;;;2.40;;
34765;SDS011;20984;43.508;1.504;2023-05-07T12:47:55;9.02;;;2.95;;
34765;SDS011;20984;43.508;1.504;2023-05-07T12:50:22;10.05;;;3.65;;
34765;SDS011;20984;43.508;1.504;2023-05-07T12:52:48;5.78;;;2.67;;
34765;SDS011;20984;43.508;1.504;2023-05-07T12:55:14;8.48;;;2.72;;
34765;SDS011;20984;43.508;1.504;2023-05-07T12:57:47;8.20;;;3.28;;
34765;SDS011;20984;43.508;1.504;2023-05-07T13:00:14;8.18;;;3.22;;
34765;SDS011;20984;43.508;1.504;2023-05-07T13:02:41;10.98;;;3.10;;
34765;SDS011;20984;43.508;1.504;2023-05-07T13:05:09;12.02;;;2.78;;
34765;SDS011;20984;43.508;1.504;2023-05-07T13:07:35;8.68;;;2.90;;
34765;SDS011;20984;43.508;1.504;2023-05-07T13:10:02;8.02;;;2.70;;
34765;SDS011;20984;43.508;1.504;2023-05-07T13:12:28;11.50;;;2.53;;
34765;SDS011;20984;43.508;1.504;2023-05-07T13:14:54;10.43;;;2.80;;
34765;SDS011;20984;43.508;1.504;2023-05-07T13:17:19;7.32;;;2.63;;
34765;SDS011;20984;43.508;1.504;2023-05-07T13:19:45;8.23;;;2.95;;
34765;SDS011;20984;43.508;1.504;2023-05-07T13:22:10;10.15;;;2.95;;
34765;SDS011;20984;43.508;1.504;2023-05-07T13:24:36;10.05;;;3.20;;
34765;SDS011;20984;43.508;1.504;2023-05-07T13:27:02;8.57;;;2.75;;
34765;SDS011;20984;43.508;1.504;2023-05-07T13:29:28;8.30;;;2.80;;
34765;SDS011;20984;43.508;1.504;2023-05-07T13:31:56;4.97;;;1.98;;
34765;SDS011;20984;43.508;1.504;2023-05-07T13:34:22;7.57;;;2.90;;
34765;SDS011;20984;43.508;1.504;2023-05-07T13:36:47;5.43;;;2.55;;
34765;SDS011;20984;43.508;1.504;2023-05-07T13:39:13;8.00;;;2.75;;
34765;SDS011;20984;43.508;1.504;2023-05-07T13:41:39;5.47;;;2.60;;
34765;SDS011;20984;43.508;1.504;2023-05-07T13:44:04;9.52;;;2.25;;
34765;SDS011;20984;43.508;1.504;2023-05-07T13:46:30;6.68;;;1.80;;
34765;SDS011;20984;43.508;1.504;2023-05-07T13:48:56;9.73;;;2.67;;
34765;SDS011;20984;43.508;1.504;2023-05-07T13:51:22;8.27;;;2.40;;
34765;SDS011;20984;43.508;1.504;2023-05-07T13:53:48;5.05;;;2.30;;
34765;SDS011;20984;43.508;1.504;2023-05-07T13:56:13;5.80;;;1.67;;
34765;SDS011;20984;43.508;1.504;2023-05-07T13:58:39;6.85;;;2.28;;
34765;SDS011;20984;43.508;1.504;2023-05-07T14:01:05;3.88;;;1.63;;
34765;SDS011;20984;43.508;1.504;2023-05-07T14:03:31;11.23;;;2.28;;
34765;SDS011;20984;43.508;1.504;2023-05-07T14:05:58;4.82;;;2.30;;
34765;SDS011;20984;43.508;1.504;2023-05-07T14:08:26;7.13;;;2.25;;
34765;SDS011;20984;43.508;1.504;2023-05-07T14:10:52;12.52;;;3.47;;
34765;SDS011;20984;43.508;1.504;2023-05-07T14:13:18;7.45;;;2.28;;
34765;SDS011;20984;43.508;1.504;2023-05-07T14:15:43;10.68;;;2.55;;
34765;SDS011;20984;43.508;1.504;2023-05-07T14:18:14;10.13;;;2.70;;
34765;SDS011;20984;43.508;1.504;2023-05-07T14:20:40;9.93;;;2.97;;
34765;SDS011;20984;43.508;1.504;2023-05-07T14:23:05;10.85;;;2.67;;
34765;SDS011;20984;43.508;1.504;2023-05-07T14:25:31;7.75;;;2.58;;
34765;SDS011;20984;43.508;1.504;2023-05-07T14:27:57;6.55;;;2.03;;
34765;SDS011;20984;43.508;1.504;2023-05-07T14:30:22;5.88;;;2.17;;
34765;SDS011;20984;43.508;1.504;2023-05-07T14:32:49;8.63;;;2.85;;
34765;SDS011;20984;43.508;1.504;2023-05-07T14:35:15;6.88;;;2.42;;
34765;SDS011;20984;43.508;1.504;2023-05-07T14:37:41;6.97;;;2.92;;
34765;SDS011;20984;43.508;1.504;2023-05-07T14:40:08;7.60;;;2.97;;
34765;SDS011;20984;43.508;1.504;2023-05-07T14:42:34;12.80;;;2.50;;
34765;SDS011;20984;43.508;1.504;2023-05-07T14:45:00;10.65;;;2.75;;
34765;SDS011;20984;43.508;1.504;2023-05-07T14:47:25;7.60;;;2.42;;
34765;SDS011;20984;43.508;1.504;2023-05-07T14:49:51;5.85;;;2.25;;